Time,TemperatureF,DewpointF,PressureIn,WindDirection,WindDirectionDegrees,WindSpeedMPH,WindSpeedGustMPH,Humidity,HourlyPrecipIn,Conditions,Clouds,dailyrainin,SoftwareType,DateUTC
2013-06-10 00:06:00,66.0,65.1,29.72,SSE,157,3.7,-999.0,97,-99.99,,,0.00,Acu-Link.com,2013-06-10 04:06:00,
2013-06-10 00:37:00,66.2,65.3,29.70,SSE,157,5.8,-999.0,97,-99.99,,,0.00,Acu-Link.com,2013-06-10 04:37:00,
2013-06-10 00:53:00,66.2,65.3,29.70,South,180,4.2,-999.0,97,-99.99,,,0.00,Acu-Link.com,2013-06-10 04:53:00,
2013-06-10 01:09:00,66.2,65.3,29.69,SE,135,5.8,-999.0,97,-99.99,,,0.00,Acu-Link.com,2013-06-10 05:09:00,
2013-06-10 01:24:00,66.2,65.3,29.68,South,180,3.7,-999.0,97,-99.99,,,0.00,Acu-Link.com,2013-06-10 05:24:00,
2013-06-10 01:40:00,66.2,65.6,29.67,ESE,112,6.8,-999.0,98,-99.99,,,0.00,Acu-Link.com,2013-06-10 05:40:00,
2013-06-10 01:57:00,66.2,65.6,29.67,South,180,4.7,-999.0,98,-99.99,,,0.00,Acu-Link.com,2013-06-10 05:57:00,
2013-06-10 02:14:00,66.2,65.6,29.66,South,180,3.2,-999.0,98,-99.99,,,0.00,Acu-Link.com,2013-06-10 06:14:00,
2013-06-10 02:29:00,66.2,65.6,29.65,SSW,202,4.2,-999.0,98,-99.99,,,0.00,Acu-Link.com,2013-06-10 06:29:00,
2013-06-10 02:45:00,66.2,65.9,29.64,SSW,202,4.2,-999.0,99,-99.99,,,0.00,Acu-Link.com,2013-06-10 06:45:00,
2013-06-10 03:01:00,66.0,65.7,29.63,SE,135,3.7,-999.0,99,-99.99,,,0.00,Acu-Link.com,2013-06-10 07:01:00,
2013-06-10 03:16:00,66.0,65.7,29.63,SSE,157,4.2,-999.0,99,-99.99,,,0.00,Acu-Link.com,2013-06-10 07:16:00,
2013-06-10 03:34:00,66.2,65.9,29.62,SSE,157,5.3,-999.0,99,-99.99,,,0.00,Acu-Link.com,2013-06-10 07:34:00,
2013-06-10 03:49:00,66.2,65.9,29.62,SSE,157,3.7,-999.0,99,-99.99,,,0.00,Acu-Link.com,2013-06-10 07:49:00,
2013-06-10 04:04:00,66.4,66.1,29.62,SSE,157,3.7,-999.0,99,-99.99,,,0.00,Acu-Link.com,2013-06-10 08:04:00,
2013-06-10 04:20:00,66.4,66.1,29.62,South,180,4.7,-999.0,99,-99.99,,,0.00,Acu-Link.com,2013-06-10 08:20:00,
2013-06-10 04:35:00,66.9,66.6,29.61,SSE,157,7.3,-999.0,99,-99.99,,,0.00,Acu-Link.com,2013-06-10 08:35:00,
2013-06-10 04:51:00,67.3,67.0,29.62,SW,225,5.3,-999.0,99,-99.99,,,0.00,Acu-Link.com,2013-06-10 08:51:00,
2013-06-10 05:06:00,66.9,66.3,29.63,West,270,7.3,-999.0,98,-99.99,,,0.01,Acu-Link.com,2013-06-10 09:06:00,
2013-06-10 05:21:00,64.8,64.5,29.63,SW,225,2.2,-999.0,99,-99.99,,,0.14,Acu-Link.com,2013-06-10 09:21:00,
2013-06-10 05:37:00,64.2,63.9,29.62,South,180,3.2,-999.0,99,-99.99,,,0.21,Acu-Link.com,2013-06-10 09:37:00,
2013-06-10 05:52:00,64.2,63.9,29.62,SSE,157,3.7,-999.0,99,-99.99,,,0.31,Acu-Link.com,2013-06-10 09:52:00,
2013-06-10 06:07:00,64.2,63.9,29.63,SSE,157,2.7,-999.0,99,-99.99,,,0.32,Acu-Link.com,2013-06-10 10:07:00,
2013-06-10 06:23:00,64.0,63.7,29.63,South,180,2.7,-999.0,99,-99.99,,,0.41,Acu-Link.com,2013-06-10 10:23:00,
2013-06-10 06:38:00,64.0,63.7,29.63,SSE,157,2.2,-999.0,99,-99.99,,,0.45,Acu-Link.com,2013-06-10 10:38:00,
2013-06-10 06:54:00,64.0,63.7,29.64,South,180,3.7,-999.0,99,-99.99,,,0.46,Acu-Link.com,2013-06-10 10:54:00,
2013-06-10 07:09:00,64.0,63.7,29.63,SSE,157,2.2,-999.0,99,-99.99,,,0.48,Acu-Link.com,2013-06-10 11:09:00,
2013-06-10 07:25:00,64.0,63.7,29.64,South,180,3.7,-999.0,99,-99.99,,,0.49,Acu-Link.com,2013-06-10 11:25:00,
2013-06-10 07:41:00,64.6,64.3,29.65,South,180,3.7,-999.0,99,-99.99,,,0.49,Acu-Link.com,2013-06-10 11:41:00,
2013-06-10 07:56:00,64.8,64.5,29.64,West,270,3.2,-999.0,99,-99.99,,,0.49,Acu-Link.com,2013-06-10 11:56:00,
2013-06-10 08:12:00,64.8,64.5,29.63,South,180,2.7,-999.0,99,-99.99,,,0.50,Acu-Link.com,2013-06-10 12:12:00,
2013-06-10 08:27:00,65.1,64.8,29.64,SSW,202,2.7,-999.0,99,-99.99,,,0.50,Acu-Link.com,2013-06-10 12:27:00,
2013-06-10 08:42:00,65.5,65.2,29.65,WSW,247,5.8,-999.0,99,-99.99,,,0.51,Acu-Link.com,2013-06-10 12:42:00,
2013-06-10 08:58:00,65.5,65.2,29.65,South,180,2.7,-999.0,99,-99.99,,,0.51,Acu-Link.com,2013-06-10 12:58:00,
2013-06-10 09:13:00,66.4,66.1,29.65,West,270,5.3,-999.0,99,-99.99,,,0.51,Acu-Link.com,2013-06-10 13:13:00,
2013-06-10 09:28:00,66.6,66.0,29.65,West,270,2.7,-999.0,98,-99.99,,,0.51,Acu-Link.com,2013-06-10 13:28:00,
2013-06-10 09:43:00,67.1,66.5,29.65,SW,225,3.7,-999.0,98,-99.99,,,0.51,Acu-Link.com,2013-06-10 13:43:00,
2013-06-10 09:58:00,66.7,65.8,29.65,WSW,247,3.2,-999.0,97,-99.99,,,0.51,Acu-Link.com,2013-06-10 13:58:00,
2013-06-10 10:14:00,67.3,66.1,29.66,SSE,157,3.2,-999.0,96,-99.99,,,0.51,Acu-Link.com,2013-06-10 14:14:00,
2013-06-10 10:29:00,66.7,65.5,29.66,WNW,292,4.2,-999.0,96,-99.99,,,0.51,Acu-Link.com,2013-06-10 14:29:00,
2013-06-10 10:44:00,66.9,66.0,29.66,West,270,2.7,-999.0,97,-99.99,,,0.51,Acu-Link.com,2013-06-10 14:44:00,
2013-06-10 10:59:00,68.4,66.6,29.66,WSW,247,5.3,-999.0,94,-99.99,,,0.51,Acu-Link.com,2013-06-10 14:59:00,
2013-06-10 11:14:00,69.6,66.5,29.65,West,270,6.8,-999.0,90,-99.99,,,0.51,Acu-Link.com,2013-06-10 15:14:00,
2013-06-10 11:30:00,70.0,66.6,29.65,West,270,4.2,-999.0,89,-99.99,,,0.51,Acu-Link.com,2013-06-10 15:30:00,
2013-06-10 11:45:00,71.4,66.6,29.65,West,270,3.2,-999.0,85,-99.99,,,0.51,Acu-Link.com,2013-06-10 15:45:00,
2013-06-10 12:00:00,73.2,68.1,29.65,South,180,5.3,-999.0,84,-99.99,,,0.51,Acu-Link.com,2013-06-10 16:00:00,
2013-06-10 12:15:00,71.2,66.5,29.65,West,270,4.2,-999.0,85,-99.99,,,0.51,Acu-Link.com,2013-06-10 16:15:00,
2013-06-10 12:30:00,72.9,67.1,29.65,West,270,6.3,-999.0,82,-99.99,,,0.51,Acu-Link.com,2013-06-10 16:30:00,
2013-06-10 12:45:00,73.2,67.0,29.65,West,270,3.7,-999.0,81,-99.99,,,0.51,Acu-Link.com,2013-06-10 16:45:00,
2013-06-10 13:00:00,73.9,66.6,29.65,West,270,5.3,-999.0,78,-99.99,,,0.51,Acu-Link.com,2013-06-10 17:00:00,
2013-06-10 13:15:00,75.4,66.9,29.64,ESE,112,7.3,-999.0,75,-99.99,,,0.51,Acu-Link.com,2013-06-10 17:15:00,
2013-06-10 13:31:00,75.0,65.7,29.64,SSW,202,2.7,-999.0,73,-99.99,,,0.51,Acu-Link.com,2013-06-10 17:31:00,
2013-06-10 13:46:00,76.6,65.7,29.64,WSW,247,5.3,-999.0,69,-99.99,,,0.51,Acu-Link.com,2013-06-10 17:46:00,
2013-06-10 14:01:00,76.8,66.3,29.64,South,180,6.8,-999.0,70,-99.99,,,0.51,Acu-Link.com,2013-06-10 18:01:00,
2013-06-10 14:16:00,75.4,64.9,29.64,WSW,247,5.8,-999.0,70,-99.99,,,0.51,Acu-Link.com,2013-06-10 18:16:00,
2013-06-10 14:32:00,75.2,65.1,29.64,WNW,292,6.8,-999.0,71,-99.99,,,0.51,Acu-Link.com,2013-06-10 18:32:00,
2013-06-10 14:47:00,72.0,67.6,29.65,SW,225,3.2,-999.0,86,-99.99,,,0.51,Acu-Link.com,2013-06-10 18:47:00,
2013-06-10 15:02:00,75.4,68.8,29.63,WSW,247,2.7,-999.0,80,-99.99,,,0.51,Acu-Link.com,2013-06-10 19:02:00,
2013-06-10 15:18:00,77.0,68.1,29.63,WNW,292,2.7,-999.0,74,-99.99,,,0.51,Acu-Link.com,2013-06-10 19:18:00,
2013-06-10 15:33:00,74.8,65.6,29.62,SW,225,5.3,-999.0,73,-99.99,,,0.51,Acu-Link.com,2013-06-10 19:33:00,
2013-06-10 15:48:00,74.5,64.9,29.63,West,270,9.4,-999.0,72,-99.99,,,0.51,Acu-Link.com,2013-06-10 19:48:00,
2013-06-10 16:03:00,71.8,64.2,29.63,West,270,3.2,-999.0,77,-99.99,,,0.51,Acu-Link.com,2013-06-10 20:03:00,
2013-06-10 16:18:00,70.5,65.8,29.63,WSW,247,4.7,-999.0,85,-99.99,,,0.51,Acu-Link.com,2013-06-10 20:18:00,
2013-06-10 16:33:00,68.0,66.5,29.64,SW,225,3.2,-999.0,95,-99.99,,,0.54,Acu-Link.com,2013-06-10 20:33:00,
2013-06-10 16:48:00,70.7,68.9,29.62,South,180,3.2,-999.0,94,-99.99,,,0.55,Acu-Link.com,2013-06-10 20:48:00,
2013-06-10 17:04:00,72.3,68.2,29.61,SSE,157,2.2,-999.0,87,-99.99,,,0.55,Acu-Link.com,2013-06-10 21:04:00,
2013-06-10 17:19:00,74.3,67.7,29.61,South,180,3.7,-999.0,80,-99.99,,,0.55,Acu-Link.com,2013-06-10 21:19:00,
2013-06-10 17:34:00,74.8,66.7,29.62,SSW,202,3.2,-999.0,76,-99.99,,,0.55,Acu-Link.com,2013-06-10 21:34:00,
2013-06-10 17:49:00,75.4,66.1,29.61,SW,225,3.2,-999.0,73,-99.99,,,0.55,Acu-Link.com,2013-06-10 21:49:00,
2013-06-10 18:05:00,74.1,65.3,29.61,SSW,202,1.7,-999.0,74,-99.99,,,0.55,Acu-Link.com,2013-06-10 22:05:00,
2013-06-10 18:20:00,73.4,65.0,29.62,SW,225,4.2,-999.0,75,-99.99,,,0.55,Acu-Link.com,2013-06-10 22:20:00,
2013-06-10 18:35:00,72.1,64.1,29.62,WSW,247,6.3,-999.0,76,-99.99,,,0.55,Acu-Link.com,2013-06-10 22:35:00,
2013-06-10 18:50:00,70.9,65.1,29.61,West,270,3.2,-999.0,82,-99.99,,,0.55,Acu-Link.com,2013-06-10 22:50:00,
2013-06-10 19:05:00,73.6,65.9,29.62,WSW,247,3.7,-999.0,77,-99.99,,,0.55,Acu-Link.com,2013-06-10 23:05:00,
2013-06-10 19:20:00,74.3,66.6,29.62,West,270,3.7,-999.0,77,-99.99,,,0.55,Acu-Link.com,2013-06-10 23:20:00,
2013-06-10 19:35:00,75.6,66.7,29.62,West,270,2.2,-999.0,74,-99.99,,,0.55,Acu-Link.com,2013-06-10 23:35:00,
2013-06-10 19:51:00,73.8,65.7,29.62,West,270,3.2,-999.0,76,-99.99,,,0.55,Acu-Link.com,2013-06-10 23:51:00,
2013-06-10 20:06:00,72.1,64.9,29.61,WSW,247,2.2,-999.0,78,-99.99,,,0.55,Acu-Link.com,2013-06-11 00:06:00,
2013-06-10 20:37:00,71.2,64.3,29.62,West,270,3.7,-999.0,79,-99.99,,,0.55,Acu-Link.com,2013-06-11 00:37:00,
2013-06-10 20:52:00,70.9,64.8,29.63,West,270,2.2,-999.0,81,-99.99,,,0.55,Acu-Link.com,2013-06-11 00:52:00,
2013-06-10 21:07:00,70.5,64.7,29.63,West,270,1.7,-999.0,82,-99.99,,,0.55,Acu-Link.com,2013-06-11 01:07:00,
2013-06-10 21:22:00,70.3,64.5,29.63,West,270,2.7,-999.0,82,-99.99,,,0.55,Acu-Link.com,2013-06-11 01:22:00,
2013-06-10 21:37:00,70.3,64.9,29.64,West,270,2.2,-999.0,83,-99.99,,,0.55,Acu-Link.com,2013-06-11 01:37:00,
2013-06-10 21:52:00,69.6,64.9,29.64,SSE,157,3.7,-999.0,85,-99.99,,,0.55,Acu-Link.com,2013-06-11 01:52:00,
2013-06-10 22:08:00,68.2,65.1,29.65,SW,225,2.2,-999.0,90,-99.99,,,0.55,Acu-Link.com,2013-06-11 02:08:00,
2013-06-10 22:23:00,67.6,65.5,29.66,SW,225,4.2,-999.0,93,-99.99,,,0.55,Acu-Link.com,2013-06-11 02:23:00,
2013-06-10 22:38:00,67.1,65.0,29.67,SSE,157,2.7,-999.0,93,-99.99,,,0.55,Acu-Link.com,2013-06-11 02:38:00,
2013-06-10 22:53:00,66.6,64.8,29.67,West,270,1.7,-999.0,94,-99.99,,,0.55,Acu-Link.com,2013-06-11 02:53:00,
2013-06-10 23:09:00,66.4,64.9,29.67,South,180,2.2,-999.0,95,-99.99,,,0.55,Acu-Link.com,2013-06-11 03:09:00,
2013-06-10 23:24:00,65.8,64.6,29.67,SSW,202,1.7,-999.0,96,-99.99,,,0.55,Acu-Link.com,2013-06-11 03:24:00,
2013-06-10 23:39:00,65.8,64.9,29.67,SSW,202,2.7,-999.0,97,-99.99,,,0.55,Acu-Link.com,2013-06-11 03:39:00,
2013-06-10 23:55:00,65.5,64.9,29.68,SW,225,1.1,-999.0,98,-99.99,,,0.55,Acu-Link.com,2013-06-11 03:55:00,